Time;durP1;ratioP1;P1;durP2;ratioP2;P2;SDS_P1;SDS_P2;PMS_P1;PMS_P2;Temp;Humidity;BMP_temperature;BMP_pressure;BME280_temperature;BME280_humidity;BME280_pressure;Samples;Min_cycle;Max_cycle;Signal;HPM_P1;HPM_P2
2023/09/24 00:00:10;;;;;;;;;;;23.30;70.20;;;;;;5095106;28;20368;-49
2023/09/24 00:02:37;;;;;;;;;;;23.30;70.30;;;;;;5078320;28;20415;-47
2023/09/24 00:05:06;;;;;;;;;;;23.30;70.60;;;;;;5097653;28;19938;-47
2023/09/24 00:07:32;;;;;;;;;;;23.30;70.70;;;;;;5097243;28;19912;-50
2023/09/24 00:10:00;;;;;;;;;;;23.30;70.80;;;;;;5096897;28;19919;-49
2023/09/24 00:12:27;;;;;;;;;;;23.30;70.90;;;;;;5096869;28;19924;-49
2023/09/24 00:14:53;;;;;;;;;;;23.30;70.90;;;;;;5101438;28;19944;-48
2023/09/24 00:17:19;;;;;;;;;;;23.30;70.70;;;;;;5103204;28;19912;-52
2023/09/24 00:19:45;;;;;;;;;;;23.30;70.70;;;;;;5104127;28;19912;-49
2023/09/24 00:22:12;;;;;;;;;;;23.30;70.80;;;;;;5103256;28;19955;-53
2023/09/24 00:24:38;;;;;;;;;;;23.30;70.80;;;;;;5092505;28;19919;-50
2023/09/24 00:27:04;;;;;;;;;;;23.30;70.90;;;;;;5119506;28;20342;-49
2023/09/24 00:29:31;;;;;;;;;;;23.30;70.90;;;;;;5104203;28;19912;-47
2023/09/24 00:31:56;;;;;;;;;;;23.30;71.00;;;;;;5103794;28;19916;-47
2023/09/24 00:34:22;;;;;;;;;;;23.30;71.10;;;;;;5103710;28;19918;-49
2023/09/24 00:36:51;;;;;;;;;;;23.30;71.30;;;;;;5103501;28;19911;-51
2023/09/24 00:39:17;;;;;;;;;;;23.30;71.40;;;;;;5103018;28;19915;-53
2023/09/24 00:41:45;;;;;;;;;;;23.20;71.50;;;;;;5104159;28;19955;-49
2023/09/24 00:44:15;;;;;;;;;;;23.20;71.40;;;;;;5103601;28;19908;-50
2023/09/24 00:46:44;;;;;;;;;;;23.20;71.40;;;;;;5096311;28;19923;-49
2023/09/24 00:49:13;;;;;;;;;;;23.20;71.40;;;;;;5103378;28;19911;-49
2023/09/24 00:51:39;;;;;;;;;;;23.20;71.40;;;;;;5096061;28;19927;-49
2023/09/24 00:54:05;;;;;;;;;;;23.20;71.30;;;;;;5103201;28;19908;-48
2023/09/24 00:56:31;;;;;;;;;;;23.20;71.10;;;;;;5106627;28;19950;-47
2023/09/24 00:58:57;;;;;;;;;;;23.20;70.90;;;;;;5124345;28;19920;-48
2023/09/24 01:01:24;;;;;;;;;;;23.20;70.60;;;;;;5138920;27;19965;-48
2023/09/24 01:03:50;;;;;;;;;;;23.20;70.70;;;;;;5122757;28;19911;-48
2023/09/24 01:06:19;;;;;;;;;;;23.20;70.80;;;;;;5122652;28;19912;-47
2023/09/24 01:08:45;;;;;;;;;;;23.20;70.80;;;;;;5125871;27;19961;-48
2023/09/24 01:11:12;;;;;;;;;;;23.20;70.80;;;;;;5120426;27;19979;-49
2023/09/24 01:13:39;;;;;;;;;;;23.20;70.80;;;;;;5116274;28;19960;-49
2023/09/24 01:16:06;;;;;;;;;;;23.20;70.80;;;;;;5123439;28;19918;-49
2023/09/24 01:18:34;;;;;;;;;;;23.20;71.00;;;;;;5122762;28;19908;-49
2023/09/24 01:21:00;;;;;;;;;;;23.20;71.10;;;;;;5123935;27;19918;-48
2023/09/24 01:23:29;;;;;;;;;;;23.20;71.20;;;;;;5124094;27;19911;-49
2023/09/24 01:25:56;;;;;;;;;;;23.10;71.20;;;;;;5123715;28;19933;-48
2023/09/24 01:28:22;;;;;;;;;;;23.10;71.30;;;;;;5122218;28;19912;-49
2023/09/24 01:30:48;;;;;;;;;;;23.10;71.30;;;;;;5122962;28;19918;-49
2023/09/24 01:33:14;;;;;;;;;;;23.10;71.30;;;;;;5123374;28;19911;-48
2023/09/24 01:35:40;;;;;;;;;;;23.10;71.10;;;;;;5122871;28;19931;-48
2023/09/24 01:38:06;;;;;;;;;;;23.10;71.00;;;;;;5105920;28;20907;-49
2023/09/24 01:40:37;;;;;;;;;;;23.10;71.00;;;;;;5122556;28;19914;-50
2023/09/24 01:43:05;;;;;;;;;;;23.10;71.00;;;;;;5122406;28;20414;-49
2023/09/24 01:45:33;;;;;;;;;;;23.10;71.10;;;;;;5136336;27;19912;-48
2023/09/24 01:47:59;;;;;;;;;;;23.10;71.00;;;;;;5114393;28;20014;-49
2023/09/24 01:50:28;;;;;;;;;;;23.10;71.20;;;;;;5121724;28;19916;-48
2023/09/24 01:53:00;;;;;;;;;;;23.00;71.00;;;;;;5120217;28;19922;-50
2023/09/24 01:55:26;;;;;;;;;;;23.00;71.30;;;;;;5121755;28;19916;-49
2023/09/24 01:57:53;;;;;;;;;;;23.00;71.50;;;;;;5122454;28;19955;-49
2023/09/24 02:00:23;;;;;;;;;;;23.00;71.50;;;;;;5122492;28;19973;-49
2023/09/24 02:02:50;;;;;;;;;;;23.00;71.50;;;;;;5122993;28;19984;-47
2023/09/24 02:05:16;;;;;;;;;;;23.00;71.50;;;;;;5122573;28;19954;-48
2023/09/24 02:07:42;;;;;;;;;;;23.00;71.50;;;;;;5118400;28;19919;-48
2023/09/24 02:10:08;;;;;;;;;;;23.00;71.50;;;;;;5121861;28;19911;-47
2023/09/24 02:12:35;;;;;;;;;;;22.90;71.40;;;;;;5111139;28;19978;-48
2023/09/24 02:15:09;;;;;;;;;;;22.90;71.30;;;;;;5121310;28;19911;-48
2023/09/24 02:17:35;;;;;;;;;;;22.90;71.40;;;;;;5120749;28;19918;-48
2023/09/24 02:20:10;;;;;;;;;;;22.90;71.30;;;;;;5121858;28;19919;-48
2023/09/24 02:22:36;;;;;;;;;;;22.90;71.40;;;;;;5119578;27;19916;-49
2023/09/24 02:25:03;;;;;;;;;;;22.90;71.40;;;;;;5119890;28;20287;-50
2023/09/24 02:27:29;;;;;;;;;;;22.90;71.50;;;;;;5119066;28;19912;-47
2023/09/24 02:29:55;;;;;;;;;;;22.90;71.50;;;;;;5120005;28;20011;-53
2023/09/24 02:32:21;;;;;;;;;;;22.90;71.50;;;;;;5117981;28;19968;-48
2023/09/24 02:34:47;;;;;;;;;;;22.80;71.70;;;;;;5119740;28;20002;-48
2023/09/24 02:37:14;;;;;;;;;;;22.80;71.80;;;;;;5120898;27;19918;-49
2023/09/24 02:39:40;;;;;;;;;;;22.80;71.90;;;;;;5118737;28;19912;-48
2023/09/24 02:42:06;;;;;;;;;;;22.80;72.20;;;;;;5119462;27;19916;-47
2023/09/24 02:44:32;;;;;;;;;;;22.80;72.10;;;;;;5119164;28;19908;-46
2023/09/24 02:46:58;;;;;;;;;;;22.80;72.30;;;;;;5119104;27;19912;-48
2023/09/24 02:49:23;;;;;;;;;;;22.80;72.10;;;;;;5122369;28;19918;-46
2023/09/24 02:51:49;;;;;;;;;;;22.80;72.00;;;;;;5126224;28;19919;-48
2023/09/24 02:54:16;;;;;;;;;;;22.80;72.10;;;;;;5125534;27;19911;-48
2023/09/24 02:56:42;;;;;;;;;;;22.70;71.90;;;;;;5126797;27;19923;-47
2023/09/24 02:59:11;;;;;;;;;;;22.70;71.80;;;;;;5125092;27;19915;-47
2023/09/24 03:01:40;;;;;;;;;;;22.70;71.80;;;;;;5125576;27;19911;-49
2023/09/24 03:04:07;;;;;;;;;;;22.70;71.80;;;;;;5124127;27;19911;-47
2023/09/24 03:06:33;;;;;;;;;;;22.70;71.90;;;;;;5125948;28;20022;-49
2023/09/24 03:08:59;;;;;;;;;;;22.70;71.90;;;;;;5125183;27;19950;-48
2023/09/24 03:11:25;;;;;;;;;;;22.70;72.10;;;;;;5124667;28;19923;-47
2023/09/24 03:13:51;;;;;;;;;;;22.70;72.30;;;;;;5107171;28;19908;-47
2023/09/24 03:16:17;;;;;;;;;;;22.70;72.50;;;;;;5124499;27;20006;-47
2023/09/24 03:18:43;;;;;;;;;;;22.70;72.50;;;;;;5118244;28;19919;-48
2023/09/24 03:21:12;;;;;;;;;;;22.70;72.50;;;;;;5118398;28;19934;-48
2023/09/24 03:23:37;;;;;;;;;;;22.60;72.30;;;;;;5117831;28;19911;-47
2023/09/24 03:26:03;;;;;;;;;;;22.60;72.60;;;;;;5117980;28;20085;-50
2023/09/24 03:28:29;;;;;;;;;;;22.60;72.40;;;;;;5120616;28;19918;-47
2023/09/24 03:30:55;;;;;;;;;;;22.60;72.20;;;;;;5124887;28;19916;-47
2023/09/24 03:33:21;;;;;;;;;;;22.60;72.30;;;;;;5122447;28;19969;-48
2023/09/24 03:35:47;;;;;;;;;;;22.60;72.40;;;;;;5124394;28;19908;-49
2023/09/24 03:38:13;;;;;;;;;;;22.60;72.30;;;;;;5123010;27;20385;-50
2023/09/24 03:40:39;;;;;;;;;;;22.50;72.30;;;;;;5115181;28;19929;-48
2023/09/24 03:43:05;;;;;;;;;;;22.50;72.20;;;;;;5103590;28;20242;-48
2023/09/24 03:45:30;;;;;;;;;;;22.50;72.30;;;;;;5124182;28;19937;-47
2023/09/24 03:47:56;;;;;;;;;;;22.50;72.30;;;;;;5121206;28;19947;-47
2023/09/24 03:50:22;;;;;;;;;;;22.50;72.30;;;;;;5122083;27;19953;-48
2023/09/24 03:52:49;;;;;;;;;;;22.50;72.60;;;;;;5106173;28;19950;-48
2023/09/24 03:55:19;;;;;;;;;;;22.50;72.60;;;;;;5114765;28;19994;-47
2023/09/24 03:57:47;;;;;;;;;;;22.50;72.50;;;;;;5098183;28;19922;-49
2023/09/24 04:00:15;;;;;;;;;;;22.40;72.50;;;;;;5124150;28;19911;-48
2023/09/24 04:02:43;;;;;;;;;;;22.40;72.60;;;;;;5124382;28;19970;-51
2023/09/24 04:05:11;;;;;;;;;;;22.40;72.60;;;;;;5116023;28;19916;-48
2023/09/24 04:07:38;;;;;;;;;;;22.40;72.70;;;;;;5117872;27;19912;-49
2023/09/24 04:10:04;;;;;;;;;;;22.40;72.60;;;;;;5116656;28;19916;-48
2023/09/24 04:12:33;;;;;;;;;;;22.40;72.60;;;;;;5105460;28;19926;-47
2023/09/24 04:15:00;;;;;;;;;;;22.40;72.70;;;;;;5104723;28;19908;-48
2023/09/24 04:17:25;;;;;;;;;;;22.40;72.70;;;;;;5118290;28;20026;-47
2023/09/24 04:19:52;;;;;;;;;;;22.40;72.60;;;;;;5124662;28;20597;-48
2023/09/24 04:22:18;;;;;;;;;;;22.30;72.60;;;;;;5126362;27;19908;-48
2023/09/24 04:24:44;;;;;;;;;;;22.30;72.60;;;;;;5117810;27;19949;-48
2023/09/24 04:27:10;;;;;;;;;;;22.30;72.80;;;;;;5129450;27;19926;-48
2023/09/24 04:29:37;;;;;;;;;;;22.30;72.80;;;;;;5114226;28;19912;-47
2023/09/24 04:32:02;;;;;;;;;;;22.30;72.90;;;;;;5119910;28;19915;-48
2023/09/24 04:34:28;;;;;;;;;;;22.30;72.80;;;;;;5123438;28;20638;-49
2023/09/24 04:36:54;;;;;;;;;;;22.30;72.90;;;;;;5122723;28;19918;-49
2023/09/24 04:39:20;;;;;;;;;;;22.30;72.90;;;;;;5109506;28;19961;-47
2023/09/24 04:41:47;;;;;;;;;;;22.20;73.00;;;;;;5122843;28;19918;-47
2023/09/24 04:44:13;;;;;;;;;;;22.20;73.10;;;;;;5115771;28;20152;-47
2023/09/24 04:46:39;;;;;;;;;;;22.20;73.10;;;;;;5123562;28;19911;-48
2023/09/24 04:49:05;;;;;;;;;;;22.20;73.00;;;;;;5123345;28;19915;-47
2023/09/24 04:51:32;;;;;;;;;;;22.20;73.10;;;;;;5130246;27;19941;-47
2023/09/24 04:54:00;;;;;;;;;;;22.20;73.00;;;;;;5123137;27;19912;-49
2023/09/24 04:56:27;;;;;;;;;;;22.20;73.10;;;;;;5121162;28;19931;-48
2023/09/24 04:58:52;;;;;;;;;;;22.20;73.10;;;;;;5115925;27;19915;-47
2023/09/24 05:01:18;;;;;;;;;;;22.20;73.10;;;;;;5116272;28;19912;-47
2023/09/24 05:03:44;;;;;;;;;;;22.10;73.00;;;;;;5118042;28;19912;-47
2023/09/24 05:06:10;;;;;;;;;;;22.20;73.20;;;;;;5119232;28;19918;-48
2023/09/24 05:08:36;;;;;;;;;;;22.10;73.20;;;;;;5121817;27;19916;-47
2023/09/24 05:11:03;;;;;;;;;;;22.10;73.20;;;;;;5128222;27;19938;-47
2023/09/24 05:13:29;;;;;;;;;;;22.10;73.20;;;;;;5122505;28;19912;-48
2023/09/24 05:15:59;;;;;;;;;;;22.10;73.20;;;;;;5125085;27;19919;-47
2023/09/24 05:18:29;;;;;;;;;;;22.10;73.30;;;;;;5111565;28;19923;-49
2023/09/24 05:20:55;;;;;;;;;;;22.10;73.40;;;;;;5122247;27;19915;-46
2023/09/24 05:23:21;;;;;;;;;;;22.10;73.40;;;;;;5129659;27;19980;-47
2023/09/24 05:25:47;;;;;;;;;;;22.00;73.40;;;;;;5120776;28;19952;-46
2023/09/24 05:28:13;;;;;;;;;;;22.00;73.30;;;;;;5115833;28;19916;-47
2023/09/24 05:30:39;;;;;;;;;;;22.00;73.50;;;;;;5116187;28;19937;-47
2023/09/24 05:33:06;;;;;;;;;;;22.00;73.60;;;;;;5122713;28;19912;-48
2023/09/24 05:35:32;;;;;;;;;;;22.00;73.60;;;;;;5122754;28;19908;-46
2023/09/24 05:37:58;;;;;;;;;;;22.00;73.60;;;;;;5118672;28;19958;-46
2023/09/24 05:40:24;;;;;;;;;;;22.00;73.60;;;;;;5121988;28;19921;-47
2023/09/24 05:42:50;;;;;;;;;;;22.00;73.70;;;;;;5120570;27;19914;-47
2023/09/24 05:45:16;;;;;;;;;;;21.90;73.60;;;;;;5121139;28;20375;-46
2023/09/24 05:47:42;;;;;;;;;;;22.00;73.60;;;;;;5120141;28;19911;-47
2023/09/24 05:50:08;;;;;;;;;;;21.90;73.60;;;;;;5122940;27;19918;-49
2023/09/24 05:52:34;;;;;;;;;;;21.90;73.60;;;;;;5111375;28;19924;-47
2023/09/24 05:55:00;;;;;;;;;;;21.90;73.60;;;;;;5122427;28;19908;-48
2023/09/24 05:57:28;;;;;;;;;;;21.90;73.70;;;;;;5120900;28;19924;-46
2023/09/24 05:59:55;;;;;;;;;;;21.90;73.80;;;;;;5119856;28;19957;-46
2023/09/24 06:02:22;;;;;;;;;;;21.90;73.80;;;;;;5121337;28;19907;-46
2023/09/24 06:04:49;;;;;;;;;;;21.90;73.80;;;;;;5121467;28;19983;-47
2023/09/24 06:07:15;;;;;;;;;;;21.80;73.70;;;;;;5120714;28;19912;-46
2023/09/24 06:09:40;;;;;;;;;;;21.80;73.70;;;;;;5120380;28;19908;-47
2023/09/24 06:12:07;;;;;;;;;;;21.80;73.80;;;;;;5112748;28;19927;-46
2023/09/24 06:14:33;;;;;;;;;;;21.80;73.80;;;;;;5119595;28;19908;-47
2023/09/24 06:16:59;;;;;;;;;;;21.80;73.90;;;;;;5118264;28;19912;-47
2023/09/24 06:19:25;;;;;;;;;;;21.80;73.90;;;;;;5121695;28;19926;-46
2023/09/24 06:22:11;;;;;;;;;;;21.80;74.70;;;;;;5128092;28;19971;-47
2023/09/24 06:24:37;;;;;;;;;;;21.80;74.00;;;;;;5034239;28;19973;-46
2023/09/24 06:27:03;;;;;;;;;;;21.80;74.00;;;;;;5039569;28;19955;-47
2023/09/24 06:29:29;;;;;;;;;;;21.70;73.80;;;;;;5038695;28;19913;-48
2023/09/24 06:31:55;;;;;;;;;;;21.70;73.80;;;;;;5039174;28;19928;-46
2023/09/24 06:34:21;;;;;;;;;;;21.80;73.90;;;;;;5039612;28;19909;-46
2023/09/24 06:36:47;;;;;;;;;;;21.70;73.90;;;;;;5039693;28;20281;-47
2023/09/24 06:39:15;;;;;;;;;;;21.70;73.90;;;;;;5028837;28;20437;-48
2023/09/24 06:41:41;;;;;;;;;;;21.70;73.90;;;;;;5039036;28;19913;-46
2023/09/24 06:44:08;;;;;;;;;;;21.70;74.00;;;;;;5036009;28;19913;-47
2023/09/24 06:46:34;;;;;;;;;;;21.70;74.00;;;;;;5039683;28;20011;-47
2023/09/24 06:49:00;;;;;;;;;;;21.70;74.10;;;;;;5034799;28;19960;-45
2023/09/24 06:51:27;;;;;;;;;;;21.70;74.10;;;;;;5031333;28;19925;-46
2023/09/24 06:53:54;;;;;;;;;;;21.60;74.10;;;;;;5034507;28;19991;-46
2023/09/24 06:56:20;;;;;;;;;;;21.60;74.10;;;;;;5038569;28;19935;-46
2023/09/24 06:58:46;;;;;;;;;;;21.60;74.90;;;;;;5036710;28;19944;-46
2023/09/24 07:01:11;;;;;;;;;;;21.60;74.90;;;;;;5060260;28;19907;-46
2023/09/24 07:03:38;;;;;;;;;;;21.60;74.10;;;;;;5126139;27;19912;-49
2023/09/24 07:06:05;;;;;;;;;;;21.60;74.10;;;;;;5126102;27;20380;-47
2023/09/24 07:08:33;;;;;;;;;;;21.60;74.20;;;;;;5125882;27;19916;-47
2023/09/24 07:11:17;;;;;;;;;;;21.60;74.20;;;;;;5121151;28;20008;-47
2023/09/24 07:13:43;;;;;;;;;;;21.60;74.20;;;;;;5114048;27;19999;-46
2023/09/24 07:16:10;;;;;;;;;;;21.60;74.20;;;;;;5125348;28;19908;-48
2023/09/24 07:18:35;;;;;;;;;;;21.60;74.20;;;;;;5125873;27;20061;-47
2023/09/24 07:21:02;;;;;;;;;;;21.50;74.20;;;;;;5124858;28;20391;-46
2023/09/24 07:23:28;;;;;;;;;;;21.50;74.20;;;;;;5128836;27;19979;-47
2023/09/24 07:25:54;;;;;;;;;;;21.50;74.20;;;;;;5125701;28;19919;-47
2023/09/24 07:28:24;;;;;;;;;;;21.50;74.20;;;;;;5124047;27;20041;-47
2023/09/24 07:30:53;;;;;;;;;;;21.50;74.30;;;;;;5121160;27;19990;-46
2023/09/24 07:33:22;;;;;;;;;;;21.50;74.20;;;;;;5124258;27;20376;-48
2023/09/24 07:35:48;;;;;;;;;;;21.50;74.30;;;;;;5125730;27;19929;-46
2023/09/24 07:38:13;;;;;;;;;;;21.40;74.30;;;;;;5118347;27;19912;-46
2023/09/24 07:40:43;;;;;;;;;;;21.50;74.30;;;;;;5118899;28;19911;-47
2023/09/24 07:43:09;;;;;;;;;;;21.40;74.30;;;;;;5124975;28;19908;-48
2023/09/24 07:45:37;;;;;;;;;;;21.40;74.30;;;;;;5119099;28;20378;-47
2023/09/24 07:48:06;;;;;;;;;;;21.40;74.30;;;;;;5123253;28;20473;-46
2023/09/24 07:50:32;;;;;;;;;;;21.40;74.30;;;;;;5124810;28;20336;-46
2023/09/24 07:52:58;;;;;;;;;;;21.40;74.40;;;;;;5115359;27;19938;-46
2023/09/24 07:55:24;;;;;;;;;;;21.40;74.40;;;;;;5128023;27;19911;-47
2023/09/24 07:57:50;;;;;;;;;;;21.40;74.40;;;;;;5125004;27;19915;-46
2023/09/24 08:00:16;;;;;;;;;;;21.40;75.20;;;;;;5124768;28;19947;-45
2023/09/24 08:02:43;;;;;;;;;;;21.30;74.30;;;;;;5122541;27;19908;-46
2023/09/24 08:05:09;;;;;;;;;;;21.30;75.10;;;;;;5134623;27;19914;-46
2023/09/24 08:07:36;;;;;;;;;;;21.30;74.40;;;;;;5123644;28;20308;-47
2023/09/24 08:10:02;;;;;;;;;;;21.30;74.40;;;;;;5123791;27;19992;-46
2023/09/24 08:12:28;;;;;;;;;;;21.30;74.50;;;;;;5116442;28;19928;-46
2023/09/24 08:14:54;;;;;;;;;;;21.30;74.50;;;;;;5125874;27;19958;-46
2023/09/24 08:17:19;;;;;;;;;;;21.30;74.50;;;;;;5106715;28;19990;-47
2023/09/24 08:19:45;;;;;;;;;;;21.30;74.50;;;;;;5123490;28;19919;-46
2023/09/24 08:22:11;;;;;;;;;;;21.30;74.50;;;;;;5122853;28;19951;-46
2023/09/24 08:24:37;;;;;;;;;;;21.20;74.50;;;;;;5124852;27;19954;-46
2023/09/24 08:27:03;;;;;;;;;;;21.20;74.50;;;;;;5124667;28;19918;-46
2023/09/24 08:29:29;;;;;;;;;;;21.20;74.50;;;;;;5124261;27;19912;-45
2023/09/24 08:31:55;;;;;;;;;;;21.20;74.60;;;;;;5124803;27;19920;-46
2023/09/24 08:34:21;;;;;;;;;;;21.20;74.60;;;;;;5124391;28;19908;-46
2023/09/24 08:36:47;;;;;;;;;;;21.20;74.60;;;;;;5124554;27;19908;-47
2023/09/24 08:39:14;;;;;;;;;;;21.20;74.60;;;;;;5122945;27;20712;-45
2023/09/24 08:41:43;;;;;;;;;;;21.20;75.40;;;;;;5115865;28;19955;-46
2023/09/24 08:44:10;;;;;;;;;;;21.10;74.60;;;;;;5123962;28;19911;-48
2023/09/24 08:46:36;;;;;;;;;;;21.10;74.60;;;;;;5123450;27;19907;-46
2023/09/24 08:49:02;;;;;;;;;;;21.10;74.60;;;;;;5123834;27;19990;-46
2023/09/24 08:51:28;;;;;;;;;;;21.10;74.60;;;;;;5123113;27;19922;-46
2023/09/24 08:53:54;;;;;;;;;;;21.10;74.70;;;;;;5105482;28;19998;-45
2023/09/24 08:56:23;;;;;;;;;;;21.10;74.80;;;;;;5121052;27;19918;-47
2023/09/24 08:58:48;;;;;;;;;;;21.10;74.70;;;;;;5123088;27;19922;-47
2023/09/24 09:01:14;;;;;;;;;;;21.10;74.70;;;;;;5123071;28;19943;-46
2023/09/24 09:03:40;;;;;;;;;;;21.10;74.80;;;;;;5123145;27;19911;-46
2023/09/24 09:06:06;;;;;;;;;;;21.00;74.70;;;;;;5123724;28;19907;-46
2023/09/24 09:08:49;;;;;;;;;;;21.00;74.70;;;;;;5117960;27;19930;-46
2023/09/24 09:11:15;;;;;;;;;;;21.00;74.70;;;;;;5122969;28;19916;-45
2023/09/24 09:13:42;;;;;;;;;;;21.00;74.80;;;;;;5103355;28;19912;-47
2023/09/24 09:16:09;;;;;;;;;;;21.00;74.80;;;;;;5123091;28;19907;-45
2023/09/24 09:18:35;;;;;;;;;;;21.00;74.80;;;;;;5123446;28;19933;-47
2023/09/24 09:21:01;;;;;;;;;;;21.00;75.50;;;;;;5123231;28;20018;-46
2023/09/24 09:23:30;;;;;;;;;;;21.00;74.80;;;;;;5114395;28;20185;-45
2023/09/24 09:25:56;;;;;;;;;;;20.90;74.80;;;;;;5123237;28;19907;-45
2023/09/24 09:28:22;;;;;;;;;;;20.90;74.90;;;;;;5122817;28;20383;-45
2023/09/24 09:31:07;;;;;;;;;;;20.90;74.90;;;;;;5122111;27;19916;-47
2023/09/24 09:33:33;;;;;;;;;;;20.90;74.80;;;;;;5122909;28;19911;-45
2023/09/24 09:36:00;;;;;;;;;;;20.90;74.80;;;;;;5122904;28;19953;-45
2023/09/24 09:38:27;;;;;;;;;;;20.90;74.80;;;;;;5116425;27;19911;-45
2023/09/24 09:40:57;;;;;;;;;;;20.90;74.90;;;;;;5120134;28;19918;-46
2023/09/24 09:43:24;;;;;;;;;;;20.90;74.90;;;;;;5121936;28;19908;-46
2023/09/24 09:45:50;;;;;;;;;;;20.90;74.90;;;;;;5121694;28;19915;-46
2023/09/24 09:48:16;;;;;;;;;;;20.90;75.00;;;;;;5116408;28;19915;-46
2023/09/24 09:50:43;;;;;;;;;;;20.90;74.90;;;;;;5104685;28;19916;-46
2023/09/24 09:53:09;;;;;;;;;;;20.90;75.10;;;;;;5122863;28;20608;-45
2023/09/24 09:55:42;;;;;;;;;;;20.80;75.00;;;;;;5122847;28;19947;-46
2023/09/24 09:58:09;;;;;;;;;;;20.80;75.00;;;;;;5101016;28;20388;-45
2023/09/24 10:00:35;;;;;;;;;;;20.80;75.00;;;;;;5102478;28;19935;-44
2023/09/24 10:03:01;;;;;;;;;;;20.80;75.00;;;;;;5094542;28;19934;-44
2023/09/24 10:05:27;;;;;;;;;;;20.80;75.00;;;;;;5117279;28;19938;-44
2023/09/24 10:07:53;;;;;;;;;;;20.80;75.00;;;;;;5089902;28;20291;-45
2023/09/24 10:10:32;;;;;;;;;;;20.80;75.00;;;;;;5102214;28;19912;-45
2023/09/24 10:13:04;;;;;;;;;;;20.80;75.10;;;;;;5097629;28;19947;-47
2023/09/24 10:15:30;;;;;;;;;;;20.80;75.00;;;;;;5101556;28;19919;-45
2023/09/24 10:18:11;;;;;;;;;;;20.70;75.10;;;;;;5102373;28;19994;-47
2023/09/24 10:20:49;;;;;;;;;;;20.70;75.10;;;;;;5096428;28;19914;-45
2023/09/24 10:23:30;;;;;;;;;;;20.70;75.10;;;;;;5094103;28;19912;-45
2023/09/24 10:26:05;;;;;;;;;;;20.70;75.10;;;;;;5101506;28;19954;-45
2023/09/24 10:28:50;;;;;;;;;;;20.70;75.20;;;;;;5101243;28;19913;-45
2023/09/24 10:31:17;;;;;;;;;;;20.70;75.20;;;;;;5100856;28;19919;-46
2023/09/24 10:33:56;;;;;;;;;;;20.70;75.20;;;;;;5095008;28;20014;-45
2023/09/24 10:36:26;;;;;;;;;;;20.70;75.20;;;;;;5102386;28;19934;-47
2023/09/24 10:39:08;;;;;;;;;;;20.60;75.20;;;;;;5105826;28;19912;-46
2023/09/24 10:41:35;;;;;;;;;;;20.60;75.20;;;;;;5105272;28;19923;-47
2023/09/24 10:44:19;;;;;;;;;;;20.60;75.20;;;;;;5106498;28;19911;-45
2023/09/24 10:46:45;;;;;;;;;;;20.60;75.20;;;;;;5099206;28;19908;-45
2023/09/24 10:49:11;;;;;;;;;;;20.60;75.20;;;;;;5086990;28;19915;-45
2023/09/24 10:51:36;;;;;;;;;;;20.60;75.30;;;;;;5105007;28;20006;-45
2023/09/24 10:54:13;;;;;;;;;;;20.60;75.30;;;;;;5105373;28;19917;-45
2023/09/24 10:56:39;;;;;;;;;;;20.60;75.30;;;;;;5104865;28;19938;-45
2023/09/24 10:59:05;;;;;;;;;;;20.60;75.40;;;;;;5105939;28;19915;-45
2023/09/24 11:01:30;;;;;;;;;;;20.60;75.30;;;;;;5104172;28;19912;-46
2023/09/24 11:03:57;;;;;;;;;;;20.60;75.30;;;;;;5103558;28;19923;-45
2023/09/24 11:06:30;;;;;;;;;;;20.50;75.30;;;;;;5105231;28;19912;-47
2023/09/24 11:09:12;;;;;;;;;;;20.50;75.30;;;;;;5120298;28;19908;-45
2023/09/24 11:11:38;;;;;;;;;;;20.50;75.40;;;;;;5097795;28;19983;-45
2023/09/24 11:14:22;;;;;;;;;;;20.50;75.40;;;;;;5103255;28;19916;-45
2023/09/24 11:16:51;;;;;;;;;;;20.50;75.40;;;;;;5099090;28;19978;-44
2023/09/24 11:19:37;;;;;;;;;;;20.50;75.40;;;;;;5105263;28;19915;-45
2023/09/24 11:22:19;;;;;;;;;;;20.50;75.40;;;;;;5104187;28;19925;-45
2023/09/24 11:24:45;;;;;;;;;;;20.50;75.40;;;;;;5105459;28;19954;-45
2023/09/24 11:27:12;;;;;;;;;;;20.50;75.50;;;;;;5104662;28;19908;-45
2023/09/24 11:29:57;;;;;;;;;;;20.40;75.40;;;;;;5099426;28;19912;-45
2023/09/24 11:32:23;;;;;;;;;;;20.40;75.40;;;;;;5103304;28;20091;-46
2023/09/24 11:34:49;;;;;;;;;;;20.40;75.50;;;;;;5104640;28;19979;-45
2023/09/24 11:37:15;;;;;;;;;;;20.40;75.40;;;;;;5103998;28;19955;-45
2023/09/24 11:39:44;;;;;;;;;;;20.40;75.50;;;;;;5104854;28;19950;-46
2023/09/24 11:42:16;;;;;;;;;;;20.40;75.60;;;;;;5103113;28;19912;-46
2023/09/24 11:44:46;;;;;;;;;;;20.40;75.50;;;;;;5089151;28;19919;-45
2023/09/24 11:47:11;;;;;;;;;;;20.40;75.60;;;;;;5100004;28;19908;-46
2023/09/24 11:49:37;;;;;;;;;;;20.30;75.60;;;;;;5099620;28;19990;-46
2023/09/24 11:52:07;;;;;;;;;;;20.30;75.60;;;;;;5104374;28;19919;-45
2023/09/24 11:54:33;;;;;;;;;;;20.30;75.60;;;;;;5102567;28;19922;-45
2023/09/24 11:56:58;;;;;;;;;;;20.30;75.60;;;;;;5093394;28;19916;-45
2023/09/24 11:59:24;;;;;;;;;;;20.30;75.60;;;;;;5102077;28;20678;-45
2023/09/24 12:01:51;;;;;;;;;;;20.30;75.60;;;;;;5095687;28;20289;-45
2023/09/24 12:04:17;;;;;;;;;;;20.30;75.70;;;;;;5101216;28;19908;-46
2023/09/24 12:06:43;;;;;;;;;;;20.30;75.70;;;;;;5093681;28;19918;-45
2023/09/24 12:09:09;;;;;;;;;;;20.30;75.70;;;;;;5111116;28;19911;-45
2023/09/24 12:11:35;;;;;;;;;;;20.30;75.70;;;;;;5118867;28;19946;-45
2023/09/24 12:14:00;;;;;;;;;;;20.30;75.70;;;;;;5096404;28;19920;-45
2023/09/24 12:16:26;;;;;;;;;;;20.30;75.80;;;;;;5101264;28;19922;-45
2023/09/24 12:18:53;;;;;;;;;;;20.30;75.80;;;;;;5098791;28;20545;-46
2023/09/24 12:21:19;;;;;;;;;;;20.20;75.70;;;;;;5103761;28;19933;-45
2023/09/24 12:23:46;;;;;;;;;;;20.20;75.70;;;;;;5105878;28;19911;-45
2023/09/24 12:26:11;;;;;;;;;;;20.20;75.70;;;;;;5106235;28;19908;-45
2023/09/24 12:28:37;;;;;;;;;;;20.20;75.70;;;;;;5101845;28;20007;-45
2023/09/24 12:31:03;;;;;;;;;;;20.20;76.50;;;;;;5100976;28;19916;-45
2023/09/24 12:33:29;;;;;;;;;;;20.20;75.70;;;;;;5103110;28;19919;-45
2023/09/24 12:35:55;;;;;;;;;;;20.20;75.80;;;;;;5099649;28;19998;-45
2023/09/24 12:38:21;;;;;;;;;;;20.20;75.80;;;;;;5095617;28;19908;-45
2023/09/24 12:40:48;;;;;;;;;;;20.20;75.80;;;;;;5102824;28;19939;-44
2023/09/24 12:43:14;;;;;;;;;;;20.20;75.80;;;;;;5102542;28;19916;-45
2023/09/24 12:45:40;;;;;;;;;;;20.20;75.90;;;;;;5105861;28;19919;-45
2023/09/24 12:48:06;;;;;;;;;;;20.10;75.80;;;;;;5102745;28;19993;-46
2023/09/24 12:50:34;;;;;;;;;;;20.20;75.90;;;;;;5105294;28;19908;-45
2023/09/24 12:53:00;;;;;;;;;;;20.10;75.90;;;;;;5096552;28;19915;-45
2023/09/24 12:55:26;;;;;;;;;;;20.10;76.00;;;;;;5101548;28;19908;-45
2023/09/24 12:57:51;;;;;;;;;;;20.10;76.00;;;;;;5103101;28;19924;-46
2023/09/24 13:00:17;;;;;;;;;;;20.10;75.90;;;;;;5094201;28;19987;-45
2023/09/24 13:02:45;;;;;;;;;;;20.10;76.00;;;;;;5110768;28;19918;-46
2023/09/24 13:05:13;;;;;;;;;;;20.10;76.00;;;;;;5100398;28;20001;-45
2023/09/24 13:07:39;;;;;;;;;;;20.10;76.00;;;;;;5113546;28;19919;-46
2023/09/24 13:10:06;;;;;;;;;;;20.10;76.00;;;;;;5099228;28;19930;-46
2023/09/24 13:12:32;;;;;;;;;;;20.10;76.00;;;;;;5101482;28;19920;-47
2023/09/24 13:14:58;;;;;;;;;;;20.10;76.10;;;;;;5100112;28;19925;-47
2023/09/24 13:17:24;;;;;;;;;;;20.10;76.10;;;;;;5093849;28;19916;-45
2023/09/24 13:19:49;;;;;;;;;;;20.10;76.10;;;;;;5097636;28;19908;-46
2023/09/24 13:22:15;;;;;;;;;;;20.10;76.10;;;;;;5094222;28;19912;-46
2023/09/24 13:24:41;;;;;;;;;;;20.10;76.10;;;;;;5098654;28;19915;-46
2023/09/24 13:27:07;;;;;;;;;;;20.10;76.10;;;;;;5093158;28;19942;-46
2023/09/24 13:29:53;;;;;;;;;;;20.10;76.10;;;;;;5094670;28;19940;-47
2023/09/24 13:32:20;;;;;;;;;;;20.10;76.20;;;;;;5063599;28;19943;-47
2023/09/24 13:34:46;;;;;;;;;;;20.10;76.20;;;;;;5059863;28;19920;-46
2023/09/24 13:37:12;;;;;;;;;;;20.10;76.30;;;;;;5056859;28;20450;-46
2023/09/24 13:39:38;;;;;;;;;;;20.10;76.30;;;;;;5060040;28;19955;-48
2023/09/24 13:42:04;;;;;;;;;;;20.10;76.30;;;;;;5060258;28;20019;-46
2023/09/24 13:44:30;;;;;;;;;;;20.10;76.30;;;;;;5060765;28;19908;-46
2023/09/24 13:46:56;;;;;;;;;;;20.10;76.20;;;;;;5063840;28;19915;-46
2023/09/24 13:49:22;;;;;;;;;;;20.10;76.20;;;;;;5061195;28;20373;-46
2023/09/24 13:51:49;;;;;;;;;;;20.10;76.30;;;;;;5058193;28;20026;-46
2023/09/24 13:54:15;;;;;;;;;;;20.10;76.30;;;;;;5057353;28;20000;-47
2023/09/24 13:56:41;;;;;;;;;;;20.10;76.30;;;;;;5066840;28;19977;-47
2023/09/24 13:59:07;;;;;;;;;;;20.10;76.40;;;;;;5079663;28;19940;-47
2023/09/24 14:01:33;;;;;;;;;;;20.10;76.40;;;;;;5079039;28;19951;-48
2023/09/24 14:03:59;;;;;;;;;;;20.10;76.40;;;;;;5079153;28;20007;-47
2023/09/24 14:06:25;;;;;;;;;;;20.10;76.40;;;;;;5078687;28;21755;-47
2023/09/24 14:14:20;;;;;;;;;;;20.10;76.60;;;;;;5126099;28;20284;-46
2023/09/24 14:16:47;;;;;;;;;;;20.10;76.60;;;;;;5126672;27;19908;-46
2023/09/24 14:19:13;;;;;;;;;;;20.10;76.60;;;;;;5120282;28;19908;-46
2023/09/24 14:21:39;;;;;;;;;;;20.10;76.60;;;;;;5128769;27;19939;-46